sensor_id;sensor_type;location;lat;lon;timestamp;P1;durP1;ratioP1;P2;durP2;ratioP2
11791;SDS011;5953;52.372;9.918;2023-03-01T00:01:18;6.43;;;3.93;;
11791;SDS011;5953;52.372;9.918;2023-03-01T00:03:47;7.17;;;3.90;;
11791;SDS011;5953;52.372;9.918;2023-03-01T00:06:15;6.07;;;4.20;;
11791;SDS011;5953;52.372;9.918;2023-03-01T00:08:45;4.07;;;3.60;;
11791;SDS011;5953;52.372;9.918;2023-03-01T00:11:15;6.47;;;4.37;;
11791;SDS011;5953;52.372;9.918;2023-03-01T00:13:44;6.77;;;4.00;;
11791;SDS011;5953;52.372;9.918;2023-03-01T00:16:14;5.97;;;4.33;;
11791;SDS011;5953;52.372;9.918;2023-03-01T00:18:43;6.37;;;4.40;;
11791;SDS011;5953;52.372;9.918;2023-03-01T00:21:11;5.77;;;3.97;;
11791;SDS011;5953;52.372;9.918;2023-03-01T00:23:39;6.07;;;3.67;;
11791;SDS011;5953;52.372;9.918;2023-03-01T00:26:09;8.03;;;4.80;;
11791;SDS011;5953;52.372;9.918;2023-03-01T00:28:39;5.23;;;3.87;;
11791;SDS011;5953;52.372;9.918;2023-03-01T00:31:09;6.13;;;4.60;;
11791;SDS011;5953;52.372;9.918;2023-03-01T00:33:38;5.63;;;4.43;;
11791;SDS011;5953;52.372;9.918;2023-03-01T00:36:06;7.83;;;4.50;;
11791;SDS011;5953;52.372;9.918;2023-03-01T00:38:35;6.70;;;4.63;;
11791;SDS011;5953;52.372;9.918;2023-03-01T00:41:04;6.80;;;4.40;;
11791;SDS011;5953;52.372;9.918;2023-03-01T00:43:45;5.90;;;4.30;;
11791;SDS011;5953;52.372;9.918;2023-03-01T00:46:30;8.07;;;4.77;;
11791;SDS011;5953;52.372;9.918;2023-03-01T00:48:58;6.80;;;4.50;;
11791;SDS011;5953;52.372;9.918;2023-03-01T00:51:28;4.53;;;3.57;;
11791;SDS011;5953;52.372;9.918;2023-03-01T00:53:57;6.47;;;4.10;;
11791;SDS011;5953;52.372;9.918;2023-03-01T00:56:26;6.90;;;4.23;;
11791;SDS011;5953;52.372;9.918;2023-03-01T00:58:55;7.20;;;4.30;;
11791;SDS011;5953;52.372;9.918;2023-03-01T01:01:24;6.33;;;4.50;;
11791;SDS011;5953;52.372;9.918;2023-03-01T01:03:58;7.20;;;5.07;;
11791;SDS011;5953;52.372;9.918;2023-03-01T01:06:31;6.47;;;4.10;;
11791;SDS011;5953;52.372;9.918;2023-03-01T01:09:02;6.20;;;4.50;;
11791;SDS011;5953;52.372;9.918;2023-03-01T01:11:30;7.97;;;4.37;;
11791;SDS011;5953;52.372;9.918;2023-03-01T01:14:00;7.13;;;4.43;;
11791;SDS011;5953;52.372;9.918;2023-03-01T01:16:28;7.77;;;4.70;;
11791;SDS011;5953;52.372;9.918;2023-03-01T01:18:57;8.20;;;4.67;;
11791;SDS011;5953;52.372;9.918;2023-03-01T01:21:25;6.47;;;4.37;;
11791;SDS011;5953;52.372;9.918;2023-03-01T01:23:53;5.57;;;4.10;;
11791;SDS011;5953;52.372;9.918;2023-03-01T01:26:22;7.77;;;4.40;;
11791;SDS011;5953;52.372;9.918;2023-03-01T01:28:51;5.73;;;4.33;;
11791;SDS011;5953;52.372;9.918;2023-03-01T01:31:21;6.77;;;4.80;;
11791;SDS011;5953;52.372;9.918;2023-03-01T01:33:50;8.70;;;4.80;;
11791;SDS011;5953;52.372;9.918;2023-03-01T01:36:18;6.17;;;4.30;;
11791;SDS011;5953;52.372;9.918;2023-03-01T01:38:46;7.17;;;4.33;;
11791;SDS011;5953;52.372;9.918;2023-03-01T01:41:14;7.17;;;5.10;;
11791;SDS011;5953;52.372;9.918;2023-03-01T01:43:43;9.10;;;5.37;;
11791;SDS011;5953;52.372;9.918;2023-03-01T01:46:15;9.07;;;5.00;;
11791;SDS011;5953;52.372;9.918;2023-03-01T01:49:01;8.73;;;5.10;;
11791;SDS011;5953;52.372;9.918;2023-03-01T01:51:35;12.57;;;5.07;;
11791;SDS011;5953;52.372;9.918;2023-03-01T01:54:08;6.53;;;4.63;;
11791;SDS011;5953;52.372;9.918;2023-03-01T01:56:39;6.47;;;4.53;;
11791;SDS011;5953;52.372;9.918;2023-03-01T01:59:09;6.33;;;5.33;;
11791;SDS011;5953;52.372;9.918;2023-03-01T02:01:40;6.93;;;4.97;;
11791;SDS011;5953;52.372;9.918;2023-03-01T02:04:08;6.10;;;4.80;;
11791;SDS011;5953;52.372;9.918;2023-03-01T02:06:37;9.83;;;5.23;;
11791;SDS011;5953;52.372;9.918;2023-03-01T02:09:10;6.77;;;5.20;;
11791;SDS011;5953;52.372;9.918;2023-03-01T02:11:40;9.33;;;5.10;;
11791;SDS011;5953;52.372;9.918;2023-03-01T02:14:09;7.10;;;4.90;;
11791;SDS011;5953;52.372;9.918;2023-03-01T02:16:37;8.40;;;4.63;;
11791;SDS011;5953;52.372;9.918;2023-03-01T02:19:09;7.23;;;4.83;;
11791;SDS011;5953;52.372;9.918;2023-03-01T02:21:47;7.47;;;4.60;;
11791;SDS011;5953;52.372;9.918;2023-03-01T02:24:26;7.33;;;4.50;;
11791;SDS011;5953;52.372;9.918;2023-03-01T02:27:01;9.13;;;4.53;;
11791;SDS011;5953;52.372;9.918;2023-03-01T02:29:30;9.50;;;4.40;;
11791;SDS011;5953;52.372;9.918;2023-03-01T02:31:59;6.87;;;4.70;;
11791;SDS011;5953;52.372;9.918;2023-03-01T02:34:29;11.30;;;5.00;;
11791;SDS011;5953;52.372;9.918;2023-03-01T02:37:00;8.30;;;4.60;;
11791;SDS011;5953;52.372;9.918;2023-03-01T02:39:34;9.97;;;4.50;;
11791;SDS011;5953;52.372;9.918;2023-03-01T02:42:08;10.83;;;5.10;;
11791;SDS011;5953;52.372;9.918;2023-03-01T02:44:40;6.03;;;3.93;;
11791;SDS011;5953;52.372;9.918;2023-03-01T02:47:08;8.07;;;4.67;;
11791;SDS011;5953;52.372;9.918;2023-03-01T02:49:37;7.83;;;5.07;;
11791;SDS011;5953;52.372;9.918;2023-03-01T02:52:16;7.27;;;4.70;;
11791;SDS011;5953;52.372;9.918;2023-03-01T02:54:55;14.83;;;4.80;;
11791;SDS011;5953;52.372;9.918;2023-03-01T02:57:26;7.63;;;4.03;;
11791;SDS011;5953;52.372;9.918;2023-03-01T02:59:59;7.10;;;4.30;;
11791;SDS011;5953;52.372;9.918;2023-03-01T03:02:34;7.27;;;4.43;;
11791;SDS011;5953;52.372;9.918;2023-03-01T03:05:04;8.30;;;4.67;;
11791;SDS011;5953;52.372;9.918;2023-03-01T03:07:34;6.67;;;4.70;;
11791;SDS011;5953;52.372;9.918;2023-03-01T03:10:03;7.30;;;4.57;;
11791;SDS011;5953;52.372;9.918;2023-03-01T03:12:33;6.80;;;4.60;;
11791;SDS011;5953;52.372;9.918;2023-03-01T03:15:03;8.73;;;4.50;;
11791;SDS011;5953;52.372;9.918;2023-03-01T03:17:35;5.57;;;3.83;;
11791;SDS011;5953;52.372;9.918;2023-03-01T03:20:04;9.87;;;4.47;;
11791;SDS011;5953;52.372;9.918;2023-03-01T03:22:37;6.47;;;4.87;;
11791;SDS011;5953;52.372;9.918;2023-03-01T03:25:06;8.43;;;4.90;;
11791;SDS011;5953;52.372;9.918;2023-03-01T03:27:37;8.63;;;4.50;;
11791;SDS011;5953;52.372;9.918;2023-03-01T03:30:08;7.30;;;4.97;;
11791;SDS011;5953;52.372;9.918;2023-03-01T03:32:38;8.80;;;4.93;;
11791;SDS011;5953;52.372;9.918;2023-03-01T03:35:07;9.80;;;4.87;;
11791;SDS011;5953;52.372;9.918;2023-03-01T03:37:38;6.83;;;4.70;;
11791;SDS011;5953;52.372;9.918;2023-03-01T03:40:25;7.63;;;4.87;;
11791;SDS011;5953;52.372;9.918;2023-03-01T03:42:53;7.07;;;4.30;;
11791;SDS011;5953;52.372;9.918;2023-03-01T03:45:23;8.77;;;5.07;;
11791;SDS011;5953;52.372;9.918;2023-03-01T03:47:51;9.57;;;5.00;;
11791;SDS011;5953;52.372;9.918;2023-03-01T03:50:19;7.53;;;4.17;;
11791;SDS011;5953;52.372;9.918;2023-03-01T03:52:51;7.23;;;5.07;;
11791;SDS011;5953;52.372;9.918;2023-03-01T03:55:19;9.67;;;5.63;;
11791;SDS011;5953;52.372;9.918;2023-03-01T03:57:48;7.90;;;5.03;;
11791;SDS011;5953;52.372;9.918;2023-03-01T04:00:18;7.30;;;4.90;;
11791;SDS011;5953;52.372;9.918;2023-03-01T04:02:49;6.60;;;5.07;;
11791;SDS011;5953;52.372;9.918;2023-03-01T04:05:18;6.70;;;4.80;;
11791;SDS011;5953;52.372;9.918;2023-03-01T04:07:46;8.57;;;5.83;;
11791;SDS011;5953;52.372;9.918;2023-03-01T04:10:15;7.67;;;4.83;;
11791;SDS011;5953;52.372;9.918;2023-03-01T04:12:44;7.20;;;5.00;;
11791;SDS011;5953;52.372;9.918;2023-03-01T04:15:12;7.17;;;5.10;;
11791;SDS011;5953;52.372;9.918;2023-03-01T04:17:40;6.87;;;4.70;;
11791;SDS011;5953;52.372;9.918;2023-03-01T04:20:10;8.63;;;5.50;;
11791;SDS011;5953;52.372;9.918;2023-03-01T04:22:40;8.03;;;4.50;;
11791;SDS011;5953;52.372;9.918;2023-03-01T04:25:08;6.63;;;4.80;;
11791;SDS011;5953;52.372;9.918;2023-03-01T04:27:40;6.80;;;5.10;;
11791;SDS011;5953;52.372;9.918;2023-03-01T04:30:08;9.10;;;5.27;;
11791;SDS011;5953;52.372;9.918;2023-03-01T04:32:37;8.40;;;5.30;;
11791;SDS011;5953;52.372;9.918;2023-03-01T04:35:05;8.97;;;5.70;;
11791;SDS011;5953;52.372;9.918;2023-03-01T04:37:35;7.57;;;4.87;;
11791;SDS011;5953;52.372;9.918;2023-03-01T04:40:03;8.10;;;4.63;;
11791;SDS011;5953;52.372;9.918;2023-03-01T04:42:39;8.37;;;5.00;;
11791;SDS011;5953;52.372;9.918;2023-03-01T04:45:07;7.13;;;5.10;;
11791;SDS011;5953;52.372;9.918;2023-03-01T04:47:40;7.10;;;5.17;;
11791;SDS011;5953;52.372;9.918;2023-03-01T04:50:09;7.30;;;4.70;;
11791;SDS011;5953;52.372;9.918;2023-03-01T04:52:44;7.17;;;4.90;;
11791;SDS011;5953;52.372;9.918;2023-03-01T04:55:21;9.83;;;5.07;;
11791;SDS011;5953;52.372;9.918;2023-03-01T04:57:52;9.57;;;5.47;;
11791;SDS011;5953;52.372;9.918;2023-03-01T05:00:21;8.50;;;5.70;;
11791;SDS011;5953;52.372;9.918;2023-03-01T05:02:50;8.13;;;5.50;;
11791;SDS011;5953;52.372;9.918;2023-03-01T05:05:24;6.33;;;5.20;;
11791;SDS011;5953;52.372;9.918;2023-03-01T05:07:56;9.10;;;5.50;;
11791;SDS011;5953;52.372;9.918;2023-03-01T05:10:25;11.57;;;6.37;;
11791;SDS011;5953;52.372;9.918;2023-03-01T05:12:55;7.53;;;5.27;;
11791;SDS011;5953;52.372;9.918;2023-03-01T05:15:24;7.50;;;5.53;;
11791;SDS011;5953;52.372;9.918;2023-03-01T05:17:54;7.40;;;5.00;;
11791;SDS011;5953;52.372;9.918;2023-03-01T05:20:25;9.47;;;5.57;;
11791;SDS011;5953;52.372;9.918;2023-03-01T05:22:57;8.50;;;5.87;;
11791;SDS011;5953;52.372;9.918;2023-03-01T05:25:26;10.00;;;5.80;;
11791;SDS011;5953;52.372;9.918;2023-03-01T05:27:59;9.67;;;6.63;;
11791;SDS011;5953;52.372;9.918;2023-03-01T05:30:30;9.10;;;5.60;;
11791;SDS011;5953;52.372;9.918;2023-03-01T05:32:59;6.73;;;5.23;;
11791;SDS011;5953;52.372;9.918;2023-03-01T05:35:28;11.17;;;5.93;;
11791;SDS011;5953;52.372;9.918;2023-03-01T05:38:00;8.17;;;5.30;;
11791;SDS011;5953;52.372;9.918;2023-03-01T05:40:28;8.40;;;5.40;;
11791;SDS011;5953;52.372;9.918;2023-03-01T05:42:56;9.90;;;5.67;;
11791;SDS011;5953;52.372;9.918;2023-03-01T05:45:26;7.17;;;5.20;;
11791;SDS011;5953;52.372;9.918;2023-03-01T05:47:54;11.13;;;6.00;;
11791;SDS011;5953;52.372;9.918;2023-03-01T05:50:23;10.33;;;6.70;;
11791;SDS011;5953;52.372;9.918;2023-03-01T05:52:56;10.37;;;6.27;;
11791;SDS011;5953;52.372;9.918;2023-03-01T05:55:27;11.30;;;6.43;;
11791;SDS011;5953;52.372;9.918;2023-03-01T05:57:57;10.20;;;6.33;;
11791;SDS011;5953;52.372;9.918;2023-03-01T06:00:26;10.50;;;6.80;;
11791;SDS011;5953;52.372;9.918;2023-03-01T06:02:54;8.90;;;5.97;;
11791;SDS011;5953;52.372;9.918;2023-03-01T06:05:23;11.67;;;7.93;;
11791;SDS011;5953;52.372;9.918;2023-03-01T06:07:52;9.83;;;6.87;;
11791;SDS011;5953;52.372;9.918;2023-03-01T06:10:21;12.47;;;7.20;;
11791;SDS011;5953;52.372;9.918;2023-03-01T06:12:51;12.17;;;6.83;;
11791;SDS011;5953;52.372;9.918;2023-03-01T06:15:20;12.43;;;6.93;;
11791;SDS011;5953;52.372;9.918;2023-03-01T06:17:48;11.30;;;7.67;;
11791;SDS011;5953;52.372;9.918;2023-03-01T06:20:17;9.50;;;6.90;;
11791;SDS011;5953;52.372;9.918;2023-03-01T06:22:46;12.03;;;7.37;;
11791;SDS011;5953;52.372;9.918;2023-03-01T06:25:16;12.20;;;6.87;;
11791;SDS011;5953;52.372;9.918;2023-03-01T06:27:46;9.67;;;6.83;;
11791;SDS011;5953;52.372;9.918;2023-03-01T06:30:17;9.70;;;5.90;;
11791;SDS011;5953;52.372;9.918;2023-03-01T06:32:46;8.63;;;5.97;;
11791;SDS011;5953;52.372;9.918;2023-03-01T06:35:15;9.23;;;5.87;;
11791;SDS011;5953;52.372;9.918;2023-03-01T06:37:44;9.73;;;5.90;;
11791;SDS011;5953;52.372;9.918;2023-03-01T06:40:13;7.93;;;5.27;;
11791;SDS011;5953;52.372;9.918;2023-03-01T06:42:42;9.40;;;5.77;;
11791;SDS011;5953;52.372;9.918;2023-03-01T06:45:17;9.57;;;5.47;;
11791;SDS011;5953;52.372;9.918;2023-03-01T06:47:46;8.30;;;5.93;;
11791;SDS011;5953;52.372;9.918;2023-03-01T06:50:15;10.73;;;5.10;;
11791;SDS011;5953;52.372;9.918;2023-03-01T06:52:44;9.23;;;6.10;;
11791;SDS011;5953;52.372;9.918;2023-03-01T06:55:11;13.40;;;5.30;;
11791;SDS011;5953;52.372;9.918;2023-03-01T06:57:40;16.87;;;6.17;;
11791;SDS011;5953;52.372;9.918;2023-03-01T07:00:09;14.63;;;6.57;;
11791;SDS011;5953;52.372;9.918;2023-03-01T07:02:39;13.37;;;5.97;;
11791;SDS011;5953;52.372;9.918;2023-03-01T07:05:08;14.60;;;6.80;;
11791;SDS011;5953;52.372;9.918;2023-03-01T07:07:36;16.27;;;6.30;;
11791;SDS011;5953;52.372;9.918;2023-03-01T07:10:05;14.70;;;5.83;;
11791;SDS011;5953;52.372;9.918;2023-03-01T07:12:37;17.20;;;6.40;;
11791;SDS011;5953;52.372;9.918;2023-03-01T07:15:05;15.53;;;6.33;;
11791;SDS011;5953;52.372;9.918;2023-03-01T07:17:36;12.40;;;6.37;;
11791;SDS011;5953;52.372;9.918;2023-03-01T07:20:06;12.67;;;6.00;;
11791;SDS011;5953;52.372;9.918;2023-03-01T07:22:42;9.93;;;5.87;;
11791;SDS011;5953;52.372;9.918;2023-03-01T07:25:26;13.03;;;6.40;;
11791;SDS011;5953;52.372;9.918;2023-03-01T07:27:55;20.70;;;6.87;;
11791;SDS011;5953;52.372;9.918;2023-03-01T07:30:23;22.33;;;6.33;;
11791;SDS011;5953;52.372;9.918;2023-03-01T07:32:55;10.20;;;5.80;;
11791;SDS011;5953;52.372;9.918;2023-03-01T07:35:31;14.43;;;6.23;;
11791;SDS011;5953;52.372;9.918;2023-03-01T07:38:00;14.77;;;6.43;;
11791;SDS011;5953;52.372;9.918;2023-03-01T07:40:28;13.90;;;6.47;;
11791;SDS011;5953;52.372;9.918;2023-03-01T07:42:57;15.83;;;6.53;;
11791;SDS011;5953;52.372;9.918;2023-03-01T07:45:28;12.20;;;6.73;;
11791;SDS011;5953;52.372;9.918;2023-03-01T07:47:57;11.27;;;6.70;;
11791;SDS011;5953;52.372;9.918;2023-03-01T07:50:26;9.90;;;6.90;;
11791;SDS011;5953;52.372;9.918;2023-03-01T07:52:56;14.03;;;7.10;;
11791;SDS011;5953;52.372;9.918;2023-03-01T07:55:27;13.73;;;7.07;;
11791;SDS011;5953;52.372;9.918;2023-03-01T07:57:58;8.23;;;6.53;;
11791;SDS011;5953;52.372;9.918;2023-03-01T08:00:27;9.93;;;6.63;;
11791;SDS011;5953;52.372;9.918;2023-03-01T08:02:58;10.27;;;6.77;;
11791;SDS011;5953;52.372;9.918;2023-03-01T08:05:26;8.07;;;6.00;;
11791;SDS011;5953;52.372;9.918;2023-03-01T08:07:57;9.53;;;6.60;;
11791;SDS011;5953;52.372;9.918;2023-03-01T08:10:25;7.80;;;6.23;;
11791;SDS011;5953;52.372;9.918;2023-03-01T08:12:53;9.30;;;6.27;;
11791;SDS011;5953;52.372;9.918;2023-03-01T08:15:21;9.73;;;6.30;;
11791;SDS011;5953;52.372;9.918;2023-03-01T08:17:49;9.73;;;6.50;;
11791;SDS011;5953;52.372;9.918;2023-03-01T08:20:18;9.57;;;5.87;;
11791;SDS011;5953;52.372;9.918;2023-03-01T08:22:47;11.40;;;6.57;;
11791;SDS011;5953;52.372;9.918;2023-03-01T08:25:17;8.03;;;6.10;;
11791;SDS011;5953;52.372;9.918;2023-03-01T08:27:46;9.90;;;6.50;;
11791;SDS011;5953;52.372;9.918;2023-03-01T08:30:15;10.20;;;6.47;;
11791;SDS011;5953;52.372;9.918;2023-03-01T08:32:44;10.37;;;6.47;;
11791;SDS011;5953;52.372;9.918;2023-03-01T08:35:12;10.93;;;6.60;;
11791;SDS011;5953;52.372;9.918;2023-03-01T08:37:54;12.43;;;6.80;;
11791;SDS011;5953;52.372;9.918;2023-03-01T08:40:25;12.13;;;7.40;;
11791;SDS011;5953;52.372;9.918;2023-03-01T08:42:53;11.40;;;7.03;;
11791;SDS011;5953;52.372;9.918;2023-03-01T08:45:21;12.50;;;8.50;;
11791;SDS011;5953;52.372;9.918;2023-03-01T08:47:51;12.07;;;7.10;;
11791;SDS011;5953;52.372;9.918;2023-03-01T08:50:21;11.03;;;7.97;;
11791;SDS011;5953;52.372;9.918;2023-03-01T08:52:54;13.33;;;7.67;;
11791;SDS011;5953;52.372;9.918;2023-03-01T08:55:28;10.37;;;6.80;;
11791;SDS011;5953;52.372;9.918;2023-03-01T08:57:56;8.67;;;6.13;;
11791;SDS011;5953;52.372;9.918;2023-03-01T09:00:31;9.43;;;5.83;;
11791;SDS011;5953;52.372;9.918;2023-03-01T09:03:01;10.00;;;5.90;;
11791;SDS011;5953;52.372;9.918;2023-03-01T09:05:39;14.27;;;6.10;;
11791;SDS011;5953;52.372;9.918;2023-03-01T09:08:24;7.67;;;5.33;;
11791;SDS011;5953;52.372;9.918;2023-03-01T09:10:59;10.57;;;6.87;;
11791;SDS011;5953;52.372;9.918;2023-03-01T09:13:33;8.67;;;6.00;;
11791;SDS011;5953;52.372;9.918;2023-03-01T09:16:04;12.83;;;5.80;;
11791;SDS011;5953;52.372;9.918;2023-03-01T09:18:39;10.60;;;6.47;;
11791;SDS011;5953;52.372;9.918;2023-03-01T09:21:09;8.23;;;5.77;;
11791;SDS011;5953;52.372;9.918;2023-03-01T09:23:39;9.20;;;5.53;;
11791;SDS011;5953;52.372;9.918;2023-03-01T09:26:14;6.97;;;4.73;;
11791;SDS011;5953;52.372;9.918;2023-03-01T09:28:47;8.50;;;4.90;;
11791;SDS011;5953;52.372;9.918;2023-03-01T09:31:17;6.00;;;4.30;;
11791;SDS011;5953;52.372;9.918;2023-03-01T09:33:47;10.27;;;4.63;;
11791;SDS011;5953;52.372;9.918;2023-03-01T09:36:19;5.60;;;3.80;;
11791;SDS011;5953;52.372;9.918;2023-03-01T09:39:23;6.87;;;4.30;;
11791;SDS011;5953;52.372;9.918;2023-03-01T09:45:31;5.53;;;3.33;;
11791;SDS011;5953;52.372;9.918;2023-03-01T09:51:12;5.10;;;3.27;;
11791;SDS011;5953;52.372;9.918;2023-03-01T09:54:00;7.07;;;4.03;;
11791;SDS011;5953;52.372;9.918;2023-03-01T09:56:53;6.70;;;3.30;;
11791;SDS011;5953;52.372;9.918;2023-03-01T09:59:59;6.53;;;3.73;;
11791;SDS011;5953;52.372;9.918;2023-03-01T10:02:39;3.30;;;2.40;;
11791;SDS011;5953;52.372;9.918;2023-03-01T10:05:19;4.97;;;4.10;;
11791;SDS011;5953;52.372;9.918;2023-03-01T10:08:10;7.67;;;3.93;;
11791;SDS011;5953;52.372;9.918;2023-03-01T10:10:53;4.70;;;2.87;;
11791;SDS011;5953;52.372;9.918;2023-03-01T10:13:24;4.77;;;3.27;;
11791;SDS011;5953;52.372;9.918;2023-03-01T10:16:09;6.90;;;4.00;;
11791;SDS011;5953;52.372;9.918;2023-03-01T10:18:48;5.47;;;3.23;;
11791;SDS011;5953;52.372;9.918;2023-03-01T10:21:27;5.73;;;3.60;;
11791;SDS011;5953;52.372;9.918;2023-03-01T10:24:07;9.37;;;3.53;;
11791;SDS011;5953;52.372;9.918;2023-03-01T10:26:48;29.00;;;16.47;;
11791;SDS011;5953;52.372;9.918;2023-03-01T10:29:23;6.50;;;3.83;;
11791;SDS011;5953;52.372;9.918;2023-03-01T10:31:59;5.07;;;3.50;;
11791;SDS011;5953;52.372;9.918;2023-03-01T10:34:29;4.73;;;3.40;;
11791;SDS011;5953;52.372;9.918;2023-03-01T10:37:01;5.57;;;3.30;;
11791;SDS011;5953;52.372;9.918;2023-03-01T10:39:53;6.27;;;3.43;;
11791;SDS011;5953;52.372;9.918;2023-03-01T10:42:25;5.63;;;4.03;;
11791;SDS011;5953;52.372;9.918;2023-03-01T10:44:56;4.93;;;3.17;;
11791;SDS011;5953;52.372;9.918;2023-03-01T10:47:26;5.70;;;2.63;;
11791;SDS011;5953;52.372;9.918;2023-03-01T10:49:56;7.70;;;4.20;;
11791;SDS011;5953;52.372;9.918;2023-03-01T10:52:28;4.63;;;3.53;;
11791;SDS011;5953;52.372;9.918;2023-03-01T10:54:58;7.47;;;3.63;;
11791;SDS011;5953;52.372;9.918;2023-03-01T10:57:32;5.87;;;4.07;;
11791;SDS011;5953;52.372;9.918;2023-03-01T11:00:18;7.67;;;5.43;;
11791;SDS011;5953;52.372;9.918;2023-03-01T11:03:09;5.27;;;3.23;;
11791;SDS011;5953;52.372;9.918;2023-03-01T11:05:50;2.87;;;2.27;;
11791;SDS011;5953;52.372;9.918;2023-03-01T11:08:30;6.63;;;2.60;;
11791;SDS011;5953;52.372;9.918;2023-03-01T11:11:04;4.27;;;2.50;;
11791;SDS011;5953;52.372;9.918;2023-03-01T11:13:34;4.17;;;3.37;;
11791;SDS011;5953;52.372;9.918;2023-03-01T11:16:05;4.03;;;2.80;;
11791;SDS011;5953;52.372;9.918;2023-03-01T11:18:38;5.17;;;2.80;;
11791;SDS011;5953;52.372;9.918;2023-03-01T11:21:14;4.93;;;3.10;;
11791;SDS011;5953;52.372;9.918;2023-03-01T11:23:45;5.73;;;2.30;;
11791;SDS011;5953;52.372;9.918;2023-03-01T11:26:14;4.20;;;2.60;;
11791;SDS011;5953;52.372;9.918;2023-03-01T11:28:47;5.93;;;3.30;;
11791;SDS011;5953;52.372;9.918;2023-03-01T11:31:19;3.83;;;2.53;;
11791;SDS011;5953;52.372;9.918;2023-03-01T11:33:53;5.10;;;2.93;;
11791;SDS011;5953;52.372;9.918;2023-03-01T11:36:28;4.40;;;3.37;;
11791;SDS011;5953;52.372;9.918;2023-03-01T11:39:02;3.90;;;3.10;;
11791;SDS011;5953;52.372;9.918;2023-03-01T11:41:40;5.33;;;3.43;;
11791;SDS011;5953;52.372;9.918;2023-03-01T11:44:10;4.93;;;3.23;;
11791;SDS011;5953;52.372;9.918;2023-03-01T11:46:47;5.67;;;4.37;;
11791;SDS011;5953;52.372;9.918;2023-03-01T11:49:41;6.03;;;3.73;;
11791;SDS011;5953;52.372;9.918;2023-03-01T11:52:25;6.23;;;3.80;;
11791;SDS011;5953;52.372;9.918;2023-03-01T11:55:07;3.63;;;2.63;;
11791;SDS011;5953;52.372;9.918;2023-03-01T11:57:49;5.10;;;3.00;;
11791;SDS011;5953;52.372;9.918;2023-03-01T12:00:36;4.23;;;2.80;;
11791;SDS011;5953;52.372;9.918;2023-03-01T12:03:19;6.47;;;2.97;;
11791;SDS011;5953;52.372;9.918;2023-03-01T12:05:58;6.43;;;4.17;;
11791;SDS011;5953;52.372;9.918;2023-03-01T12:08:38;6.03;;;3.70;;
11791;SDS011;5953;52.372;9.918;2023-03-01T12:11:13;4.53;;;3.03;;
11791;SDS011;5953;52.372;9.918;2023-03-01T12:14:00;3.73;;;2.60;;
11791;SDS011;5953;52.372;9.918;2023-03-01T12:17:09;4.60;;;3.00;;
11791;SDS011;5953;52.372;9.918;2023-03-01T12:19:56;4.70;;;3.13;;
11791;SDS011;5953;52.372;9.918;2023-03-01T12:22:46;4.90;;;3.40;;
11791;SDS011;5953;52.372;9.918;2023-03-01T12:25:45;5.03;;;3.20;;
11791;SDS011;5953;52.372;9.918;2023-03-01T12:28:24;6.33;;;3.40;;
11791;SDS011;5953;52.372;9.918;2023-03-01T12:31:08;5.27;;;3.47;;
11791;SDS011;5953;52.372;9.918;2023-03-01T12:33:45;5.70;;;2.67;;
11791;SDS011;5953;52.372;9.918;2023-03-01T12:36:26;4.30;;;2.80;;
11791;SDS011;5953;52.372;9.918;2023-03-01T12:39:10;3.13;;;2.20;;
11791;SDS011;5953;52.372;9.918;2023-03-01T12:41:51;3.77;;;2.63;;
11791;SDS011;5953;52.372;9.918;2023-03-01T12:44:31;2.77;;;1.93;;
11791;SDS011;5953;52.372;9.918;2023-03-01T12:47:17;3.50;;;2.43;;
11791;SDS011;5953;52.372;9.918;2023-03-01T12:49:55;3.00;;;2.10;;
11791;SDS011;5953;52.372;9.918;2023-03-01T12:52:28;4.33;;;2.17;;
11791;SDS011;5953;52.372;9.918;2023-03-01T12:55:08;5.57;;;2.37;;
11791;SDS011;5953;52.372;9.918;2023-03-01T12:57:57;4.90;;;2.67;;
11791;SDS011;5953;52.372;9.918;2023-03-01T13:00:37;3.57;;;2.40;;
11791;SDS011;5953;52.372;9.918;2023-03-01T13:03:11;5.27;;;3.07;;
11791;SDS011;5953;52.372;9.918;2023-03-01T13:05:51;16.83;;;10.07;;
11791;SDS011;5953;52.372;9.918;2023-03-01T13:08:31;13.67;;;9.93;;
11791;SDS011;5953;52.372;9.918;2023-03-01T13:11:06;3.47;;;2.63;;
11791;SDS011;5953;52.372;9.918;2023-03-01T13:13:48;4.80;;;1.60;;
11791;SDS011;5953;52.372;9.918;2023-03-01T13:16:21;3.33;;;2.00;;
11791;SDS011;5953;52.372;9.918;2023-03-01T13:19:06;5.00;;;2.57;;
11791;SDS011;5953;52.372;9.918;2023-03-01T13:21:43;3.77;;;2.57;;
11791;SDS011;5953;52.372;9.918;2023-03-01T13:24:33;4.63;;;3.10;;
11791;SDS011;5953;52.372;9.918;2023-03-01T13:27:20;3.67;;;2.60;;
11791;SDS011;5953;52.372;9.918;2023-03-01T13:29:56;4.00;;;2.43;;
11791;SDS011;5953;52.372;9.918;2023-03-01T13:32:27;3.07;;;2.23;;
11791;SDS011;5953;52.372;9.918;2023-03-01T13:38:38;3.10;;;2.23;;
11791;SDS011;5953;52.372;9.918;2023-03-01T13:41:13;3.97;;;2.50;;
11791;SDS011;5953;52.372;9.918;2023-03-01T13:43:44;2.10;;;1.57;;
11791;SDS011;5953;52.372;9.918;2023-03-01T13:46:16;6.30;;;2.80;;
11791;SDS011;5953;52.372;9.918;2023-03-01T13:48:51;4.07;;;2.50;;
11791;SDS011;5953;52.372;9.918;2023-03-01T13:51:23;4.23;;;2.40;;
11791;SDS011;5953;52.372;9.918;2023-03-01T13:53:58;3.87;;;2.30;;
11791;SDS011;5953;52.372;9.918;2023-03-01T13:56:33;4.47;;;2.43;;
11791;SDS011;5953;52.372;9.918;2023-03-01T13:59:06;3.93;;;2.13;;
11791;SDS011;5953;52.372;9.918;2023-03-01T14:01:41;4.90;;;2.20;;
11791;SDS011;5953;52.372;9.918;2023-03-01T14:04:18;3.30;;;2.47;;
11791;SDS011;5953;52.372;9.918;2023-03-01T14:06:48;3.87;;;3.10;;
11791;SDS011;5953;52.372;9.918;2023-03-01T14:09:18;5.40;;;2.40;;
11791;SDS011;5953;52.372;9.918;2023-03-01T14:12:02;4.10;;;2.37;;
11791;SDS011;5953;52.372;9.918;2023-03-01T14:17:46;2.47;;;2.27;;
11791;SDS011;5953;52.372;9.918;2023-03-01T14:20:25;3.10;;;2.50;;
11791;SDS011;5953;52.372;9.918;2023-03-01T14:22:55;4.47;;;2.50;;
11791;SDS011;5953;52.372;9.918;2023-03-01T14:25:26;3.03;;;1.97;;
11791;SDS011;5953;52.372;9.918;2023-03-01T14:27:57;3.07;;;2.37;;
11791;SDS011;5953;52.372;9.918;2023-03-01T14:30:32;3.20;;;2.13;;
11791;SDS011;5953;52.372;9.918;2023-03-01T14:33:17;2.57;;;2.00;;
11791;SDS011;5953;52.372;9.918;2023-03-01T14:35:52;4.67;;;2.27;;
11791;SDS011;5953;52.372;9.918;2023-03-01T14:38:23;3.13;;;2.30;;
11791;SDS011;5953;52.372;9.918;2023-03-01T14:40:57;4.33;;;1.60;;
11791;SDS011;5953;52.372;9.918;2023-03-01T14:43:29;3.87;;;1.60;;
11791;SDS011;5953;52.372;9.918;2023-03-01T14:45:58;4.70;;;2.10;;
11791;SDS011;5953;52.372;9.918;2023-03-01T14:48:28;3.47;;;2.40;;
11791;SDS011;5953;52.372;9.918;2023-03-01T14:50:57;3.23;;;1.93;;
11791;SDS011;5953;52.372;9.918;2023-03-01T14:53:27;3.43;;;2.10;;
11791;SDS011;5953;52.372;9.918;2023-03-01T14:56:11;2.93;;;2.20;;
11791;SDS011;5953;52.372;9.918;2023-03-01T14:58:41;3.43;;;1.93;;
11791;SDS011;5953;52.372;9.918;2023-03-01T15:01:10;6.13;;;2.27;;
11791;SDS011;5953;52.372;9.918;2023-03-01T15:03:45;4.87;;;2.03;;
11791;SDS011;5953;52.372;9.918;2023-03-01T15:06:14;4.90;;;2.10;;
11791;SDS011;5953;52.372;9.918;2023-03-01T15:08:45;4.10;;;2.43;;
11791;SDS011;5953;52.372;9.918;2023-03-01T15:11:17;3.63;;;1.93;;
11791;SDS011;5953;52.372;9.918;2023-03-01T15:13:51;2.70;;;1.90;;
11791;SDS011;5953;52.372;9.918;2023-03-01T15:16:21;3.00;;;1.90;;
11791;SDS011;5953;52.372;9.918;2023-03-01T15:18:53;1.83;;;1.43;;
11791;SDS011;5953;52.372;9.918;2023-03-01T15:21:25;4.00;;;2.00;;
11791;SDS011;5953;52.372;9.918;2023-03-01T15:23:56;2.80;;;1.67;;
11791;SDS011;5953;52.372;9.918;2023-03-01T15:26:29;5.00;;;1.80;;
11791;SDS011;5953;52.372;9.918;2023-03-01T15:28:59;4.07;;;2.17;;
11791;SDS011;5953;52.372;9.918;2023-03-01T15:31:28;2.90;;;1.97;;
11791;SDS011;5953;52.372;9.918;2023-03-01T15:34:10;2.20;;;2.00;;
11791;SDS011;5953;52.372;9.918;2023-03-01T15:36:48;2.97;;;2.00;;
11791;SDS011;5953;52.372;9.918;2023-03-01T15:39:37;3.00;;;2.03;;
11791;SDS011;5953;52.372;9.918;2023-03-01T15:42:07;2.93;;;2.17;;
11791;SDS011;5953;52.372;9.918;2023-03-01T15:44:38;6.57;;;2.23;;
11791;SDS011;5953;52.372;9.918;2023-03-01T15:50:00;3.90;;;2.00;;